createdAt,value
2023-01-07T00:01:08.796Z,102081.88
2023-01-07T00:03:37.126Z,102082.45
2023-01-07T00:06:07.310Z,102081.92
2023-01-07T00:08:37.385Z,102079.16
2023-01-07T00:11:06.599Z,102082.45
2023-01-07T00:13:58.635Z,102085.51
2023-01-07T00:16:48.735Z,102083.79
2023-01-07T00:19:16.858Z,102082.10
2023-01-07T00:21:44.012Z,102078.22
2023-01-07T00:24:11.969Z,102081.56
2023-01-07T00:26:40.556Z,102080.51
2023-01-07T00:29:08.265Z,102080.96
2023-01-07T00:31:37.577Z,102082.30
2023-01-07T00:34:05.301Z,102082.23
2023-01-07T00:36:41.432Z,102086.53
2023-01-07T00:39:13.230Z,102087.63
2023-01-07T00:41:40.313Z,102088.20
2023-01-07T00:44:08.450Z,102086.94
2023-01-07T00:46:35.599Z,102089.42
2023-01-07T00:49:02.883Z,102093.86
2023-01-07T00:51:29.850Z,102092.48
2023-01-07T00:53:57.199Z,102094.59
2023-01-07T00:56:24.293Z,102093.70
2023-01-07T00:58:51.367Z,102095.48
2023-01-07T01:01:18.955Z,102091.51
2023-01-07T01:03:46.090Z,102092.89
2023-01-07T01:06:15.995Z,102093.42
2023-01-07T01:08:45.326Z,102092.21
2023-01-07T01:11:14.531Z,102095.90
2023-01-07T01:13:43.069Z,102092.90
2023-01-07T01:16:13.177Z,102094.84
2023-01-07T01:18:40.223Z,102091.88
2023-01-07T01:21:10.906Z,102087.86
2023-01-07T01:23:38.826Z,102087.50
2023-01-07T01:26:11.215Z,102092.45
2023-01-07T01:28:38.920Z,102088.31
2023-01-07T01:31:08.470Z,102088.80
2023-01-07T01:33:43.752Z,102087.30
2023-01-07T01:36:13.321Z,102082.75
2023-01-07T01:38:41.215Z,102084.80
2023-01-07T01:41:09.053Z,102086.33
2023-01-07T01:43:40.744Z,102083.29
2023-01-07T01:46:25.148Z,102083.39
2023-01-07T01:49:04.144Z,102080.39
2023-01-07T01:51:37.236Z,102079.13
2023-01-07T01:54:08.994Z,102078.45
2023-01-07T01:56:39.201Z,102078.08
2023-01-07T01:59:11.075Z,102077.45
2023-01-07T02:01:38.910Z,102075.91
2023-01-07T02:04:18.777Z,102074.86
2023-01-07T02:07:01.350Z,102076.81
2023-01-07T02:09:29.061Z,102072.62
2023-01-07T02:12:23.705Z,102073.56
2023-01-07T02:15:09.232Z,102069.70
2023-01-07T02:17:58.594Z,102070.48
2023-01-07T02:20:38.708Z,102073.29
2023-01-07T02:23:27.288Z,102071.06
2023-01-07T02:26:28.008Z,102073.38
2023-01-07T02:28:55.043Z,102074.59
2023-01-07T02:31:51.364Z,102072.85
2023-01-07T02:34:24.151Z,102069.84
2023-01-07T02:37:08.376Z,102066.02
2023-01-07T02:40:03.858Z,102063.58
2023-01-07T02:42:33.960Z,102063.69
2023-01-07T02:45:19.015Z,102058.33
2023-01-07T02:48:09.379Z,102059.21
2023-01-07T02:50:42.427Z,102055.55
2023-01-07T02:53:18.133Z,102052.55
2023-01-07T02:56:00.913Z,102051.69
2023-01-07T02:58:40.852Z,102045.36
2023-01-07T03:02:01.018Z,102042.19
2023-01-07T03:04:35.375Z,102039.40
2023-01-07T03:07:23.923Z,102036.56
2023-01-07T03:09:51.582Z,102032.98
2023-01-07T03:12:29.021Z,102033.95
2023-01-07T03:15:17.112Z,102032.51
2023-01-07T03:18:05.257Z,102029.48
2023-01-07T03:20:36.122Z,102027.98
2023-01-07T03:23:08.394Z,102026.37
2023-01-07T03:25:39.799Z,102025.09
2023-01-07T03:28:09.712Z,102023.10
2023-01-07T03:30:38.744Z,102026.78
2023-01-07T03:33:15.309Z,102028.59
2023-01-07T03:35:47.356Z,102031.85
2023-01-07T03:38:17.021Z,102029.67
2023-01-07T03:40:44.122Z,102030.56
2023-01-07T03:43:17.990Z,102033.82
2023-01-07T03:45:46.298Z,102031.38
2023-01-07T03:48:13.577Z,102032.67
2023-01-07T03:50:40.490Z,102036.59
2023-01-07T03:53:12.069Z,102036.63
2023-01-07T03:55:39.292Z,102036.54
2023-01-07T03:58:06.406Z,102037.91
2023-01-07T04:00:33.592Z,102041.05
2023-01-07T04:03:06.163Z,102042.34
2023-01-07T04:05:36.993Z,102041.17
2023-01-07T04:08:05.030Z,102038.44
2023-01-07T04:10:33.945Z,102038.34
2023-01-07T04:13:00.996Z,102040.23
2023-01-07T04:15:28.067Z,102040.56
2023-01-07T04:17:55.047Z,102042.84
2023-01-07T04:20:23.202Z,102043.52
2023-01-07T04:22:50.175Z,102047.62
2023-01-07T04:25:18.194Z,102041.50
2023-01-07T04:27:45.339Z,102045.95
2023-01-07T04:30:13.045Z,102043.06
2023-01-07T04:32:40.260Z,102044.14
2023-01-07T04:35:07.817Z,102047.44
2023-01-07T04:37:34.883Z,102047.75
2023-01-07T04:40:02.000Z,102048.13
2023-01-07T04:42:32.013Z,102050.45
2023-01-07T04:44:59.188Z,102054.77
2023-01-07T04:47:26.146Z,102054.53
2023-01-07T04:49:53.467Z,102054.98
2023-01-07T04:52:20.576Z,102054.80
2023-01-07T04:54:47.545Z,102052.79
2023-01-07T04:57:15.311Z,102053.55
2023-01-07T04:59:43.984Z,102056.95
2023-01-07T05:02:11.121Z,102049.79
2023-01-07T05:04:38.278Z,102056.33
2023-01-07T05:07:06.194Z,102058.77
2023-01-07T05:09:34.514Z,102061.29
2023-01-07T05:12:01.636Z,102060.36
2023-01-07T05:14:29.495Z,102057.98
2023-01-07T05:16:56.949Z,102059.84
2023-01-07T05:19:25.002Z,102062.23
2023-01-07T05:21:52.564Z,102059.46
2023-01-07T05:24:19.424Z,102061.94
2023-01-07T05:26:46.457Z,102063.60
2023-01-07T05:29:14.079Z,102060.96
2023-01-07T05:31:42.622Z,102061.86
2023-01-07T05:34:10.792Z,102064.45
2023-01-07T05:36:39.207Z,102064.08
2023-01-07T05:39:10.108Z,102061.55
2023-01-07T05:41:38.375Z,102062.40
2023-01-07T05:44:07.710Z,102069.11
2023-01-07T05:46:43.257Z,102072.09
2023-01-07T05:49:11.024Z,102068.69
2023-01-07T05:51:38.527Z,102070.48
2023-01-07T05:54:09.217Z,102072.04
2023-01-07T05:56:39.459Z,102073.77
2023-01-07T05:59:07.008Z,102072.23
2023-01-07T06:01:37.512Z,102072.48
2023-01-07T06:04:08.712Z,102069.27
2023-01-07T06:06:41.639Z,102071.39
2023-01-07T06:09:09.110Z,102070.86
2023-01-07T06:11:39.420Z,102073.39
2023-01-07T06:14:10.087Z,102073.34
2023-01-07T06:16:37.784Z,102075.08
2023-01-07T06:19:14.027Z,102074.02
2023-01-07T06:21:43.203Z,102072.97
2023-01-07T06:24:20.530Z,102078.40
2023-01-07T06:26:51.247Z,102077.03
2023-01-07T06:29:18.565Z,102076.30
2023-01-07T06:31:54.399Z,102075.87
2023-01-07T06:34:21.837Z,102077.45
2023-01-07T06:36:52.071Z,102071.85
2023-01-07T06:39:19.429Z,102072.90
2023-01-07T06:41:51.816Z,102072.23
2023-01-07T06:44:19.555Z,102074.12
2023-01-07T06:46:46.847Z,102075.06
2023-01-07T06:49:14.192Z,102076.11
2023-01-07T06:51:44.565Z,102077.17
2023-01-07T06:54:17.551Z,102081.77
2023-01-07T06:56:45.008Z,102079.33
2023-01-07T06:59:12.526Z,102079.54
2023-01-07T07:01:46.591Z,102081.24
2023-01-07T07:04:22.777Z,102080.70
2023-01-07T07:06:56.464Z,102081.86
2023-01-07T07:09:32.371Z,102081.16
2023-01-07T07:12:14.599Z,102088.56
2023-01-07T07:14:43.613Z,102091.08
2023-01-07T07:17:16.974Z,102088.73
2023-01-07T07:19:58.652Z,102090.04
2023-01-07T07:22:45.772Z,102091.35
2023-01-07T07:25:16.608Z,102098.23
2023-01-07T07:27:52.451Z,102100.95
2023-01-07T07:30:46.692Z,102099.04
2023-01-07T07:33:19.774Z,102096.89
2023-01-07T07:35:51.083Z,102095.79
2023-01-07T07:38:21.495Z,102096.39
2023-01-07T07:40:49.031Z,102100.41
2023-01-07T07:43:24.581Z,102103.46
2023-01-07T07:46:03.772Z,102102.12
2023-01-07T07:51:31.564Z,102111.55
2023-01-07T07:54:02.174Z,102112.89
2023-01-07T07:56:35.352Z,102114.55
2023-01-07T07:59:17.528Z,102115.20
2023-01-07T08:02:09.078Z,102118.20
2023-01-07T08:04:36.254Z,102121.63
2023-01-07T08:07:03.895Z,102122.55
2023-01-07T08:09:36.836Z,102120.10
2023-01-07T08:12:06.729Z,102123.52
2023-01-07T08:14:59.540Z,102125.75
2023-01-07T08:17:29.963Z,102120.81
2023-01-07T08:20:02.129Z,102126.77
2023-01-07T08:22:29.301Z,102122.12
2023-01-07T08:25:07.419Z,102126.16
2023-01-07T08:27:37.291Z,102127.50
2023-01-07T08:30:11.100Z,102131.64
2023-01-07T08:32:43.830Z,102135.98
2023-01-07T08:35:14.227Z,102138.60
2023-01-07T08:37:41.858Z,102141.61
2023-01-07T08:40:15.747Z,102139.81
2023-01-07T08:42:43.252Z,102138.70
2023-01-07T08:45:15.056Z,102141.26
2023-01-07T08:47:49.078Z,102144.30
2023-01-07T08:50:23.401Z,102150.19
2023-01-07T08:52:53.631Z,102152.20
2023-01-07T08:55:22.230Z,102153.45
2023-01-07T08:57:49.734Z,102154.59
2023-01-07T09:00:20.543Z,102158.67
2023-01-07T09:02:49.110Z,102158.31
2023-01-07T09:05:21.758Z,102161.66
2023-01-07T09:07:57.850Z,102162.11
2023-01-07T09:10:36.459Z,102161.21
2023-01-07T09:13:13.163Z,102163.39
2023-01-07T09:15:49.247Z,102159.56
2023-01-07T09:18:27.338Z,102156.64
2023-01-07T09:21:00.765Z,102161.59
2023-01-07T09:23:28.156Z,102160.45
2023-01-07T09:25:55.432Z,102163.70
2023-01-07T09:31:10.353Z,102158.04
2023-01-07T09:33:47.077Z,102157.89
2023-01-07T09:36:18.433Z,102156.71
2023-01-07T09:38:53.896Z,102155.29
2023-01-07T09:41:33.709Z,102157.56
2023-01-07T09:44:14.934Z,102159.41
2023-01-07T09:46:48.313Z,102156.83
2023-01-07T09:52:49.101Z,102154.29
2023-01-07T09:56:10.686Z,102150.23
2023-01-07T09:58:37.863Z,102141.50
2023-01-07T10:02:04.411Z,102143.67
2023-01-07T10:04:50.222Z,102137.35
2023-01-07T10:07:43.408Z,102135.08
2023-01-07T10:10:39.962Z,102132.55
2023-01-07T10:13:48.766Z,102125.41
2023-01-07T10:16:36.252Z,102123.08
2023-01-07T10:19:11.058Z,102122.46
2023-01-07T10:21:57.588Z,102120.27
2023-01-07T10:24:47.594Z,102115.27
2023-01-07T10:27:19.007Z,102109.48
2023-01-07T10:29:59.232Z,102111.07
2023-01-07T10:32:49.352Z,102105.52
2023-01-07T10:35:41.886Z,102100.55
2023-01-07T10:38:56.601Z,102100.88
2023-01-07T10:42:00.120Z,102097.01
2023-01-07T10:44:30.108Z,102096.92
2023-01-07T10:47:18.017Z,102094.18
2023-01-07T10:58:01.061Z,102077.23
2023-01-07T11:01:16.388Z,102072.05
2023-01-07T11:07:49.162Z,102060.66
2023-01-07T11:10:27.616Z,102060.61
2023-01-07T11:13:42.802Z,102059.60
2023-01-07T11:20:03.814Z,102053.16
2023-01-07T11:22:45.201Z,102049.50
2023-01-07T11:25:38.581Z,102048.15
2023-01-07T11:32:25.520Z,102048.34
2023-01-07T11:35:40.605Z,102045.02
2023-01-07T11:38:51.469Z,102044.75
2023-01-07T11:41:55.741Z,102038.66
2023-01-07T11:45:07.786Z,102037.04
2023-01-07T11:47:50.500Z,102032.59
2023-01-07T11:54:18.257Z,102024.70
2023-01-07T11:57:04.555Z,102019.52
2023-01-07T12:00:03.494Z,102018.21
2023-01-07T12:06:51.560Z,102007.83
2023-01-07T12:09:52.639Z,102003.73
2023-01-07T12:12:50.719Z,101999.30
2023-01-07T12:15:53.962Z,101997.33
2023-01-07T12:19:13.926Z,101994.54
2023-01-07T12:22:03.368Z,101991.11
2023-01-07T12:25:27.047Z,101991.40
2023-01-07T12:28:50.590Z,101987.56
2023-01-07T12:33:00.434Z,101987.30
2023-01-07T12:35:42.872Z,101987.63
2023-01-07T12:38:20.249Z,101990.27
2023-01-07T12:41:02.040Z,101987.02
2023-01-07T12:43:45.020Z,101987.77
2023-01-07T12:46:17.610Z,101983.84
2023-01-07T12:49:11.297Z,101981.61
2023-01-07T12:51:40.881Z,101980.14
2023-01-07T12:54:18.895Z,101979.84
2023-01-07T12:57:16.069Z,101976.31
2023-01-07T13:00:08.572Z,101977.17
2023-01-07T13:02:48.575Z,101978.98
2023-01-07T13:05:26.793Z,101978.89
2023-01-07T13:07:56.604Z,101976.34
2023-01-07T13:10:41.400Z,101975.54
2023-01-07T13:13:26.141Z,101971.89
2023-01-07T13:15:53.967Z,101969.55
2023-01-07T13:18:22.346Z,101969.41
2023-01-07T13:21:01.259Z,101966.66
2023-01-07T13:23:59.167Z,101967.59
2023-01-07T13:26:44.676Z,101970.54
2023-01-07T13:30:06.169Z,101973.08
2023-01-07T13:32:33.101Z,101972.59
2023-01-07T13:35:19.677Z,101974.54
2023-01-07T13:38:12.008Z,101974.23
2023-01-07T13:40:48.363Z,101974.35
2023-01-07T13:43:31.468Z,101975.89
2023-01-07T13:46:11.600Z,101974.58
2023-01-07T13:48:41.391Z,101974.09
2023-01-07T13:51:10.266Z,101974.02
2023-01-07T13:53:38.731Z,101974.01
2023-01-07T13:56:18.041Z,101974.82
2023-01-07T13:58:49.034Z,101973.39
2023-01-07T14:01:21.718Z,101975.34
2023-01-07T14:04:03.421Z,101974.40
2023-01-07T14:06:30.641Z,101978.63
2023-01-07T14:09:11.617Z,101980.09
2023-01-07T14:11:48.242Z,101981.27
2023-01-07T14:14:31.934Z,101981.02
2023-01-07T14:17:26.459Z,101980.36
2023-01-07T14:20:16.746Z,101981.05
2023-01-07T14:22:54.010Z,101978.85
2023-01-07T14:25:33.649Z,101974.98
2023-01-07T14:28:03.316Z,101979.97
2023-01-07T14:30:53.087Z,101976.86
2023-01-07T14:33:41.429Z,101979.41
2023-01-07T14:37:00.316Z,101980.88
2023-01-07T14:40:25.265Z,101981.19
2023-01-07T14:43:36.071Z,101980.23
2023-01-07T14:46:59.609Z,101978.69
2023-01-07T14:49:53.343Z,101979.38
2023-01-07T14:53:02.663Z,101979.14
2023-01-07T14:56:20.964Z,101978.69
2023-01-07T14:59:23.976Z,101978.73
2023-01-07T15:02:54.958Z,101980.61
2023-01-07T15:06:04.875Z,101982.38
2023-01-07T15:09:40.285Z,101979.94
2023-01-07T15:12:43.319Z,101982.80
2023-01-07T15:16:03.915Z,101982.95
2023-01-07T15:18:52.747Z,101987.70
2023-01-07T15:21:42.661Z,101985.06
2023-01-07T15:24:22.265Z,101987.92
2023-01-07T15:27:38.629Z,101989.98
2023-01-07T15:30:19.296Z,101992.73
2023-01-07T15:33:04.447Z,101996.54
2023-01-07T15:35:41.279Z,101998.48
2023-01-07T15:38:52.332Z,101997.50
2023-01-07T15:42:27.792Z,101997.72
2023-01-07T15:45:19.968Z,101998.20
2023-01-07T15:48:48.907Z,101996.52
2023-01-07T15:52:10.811Z,101995.84
2023-01-07T15:55:43.727Z,101997.02
2023-01-07T15:58:53.340Z,101998.89
2023-01-07T16:01:26.477Z,101997.58
2023-01-07T16:04:22.263Z,102000.48
2023-01-07T16:11:42.583Z,102005.71
2023-01-07T16:14:57.571Z,102003.48
2023-01-07T16:18:12.583Z,102003.31
2023-01-07T16:23:21.575Z,102000.82
2023-01-07T16:24:31.107Z,102008.79
2023-01-07T16:27:33.735Z,102005.52
2023-01-07T16:33:41.917Z,102011.70
2023-01-07T16:40:02.568Z,102015.99
2023-01-07T16:42:55.222Z,102017.70
2023-01-07T16:46:35.732Z,102019.62
2023-01-07T16:49:50.909Z,102021.79
2023-01-07T16:52:43.369Z,102023.05
2023-01-07T16:56:22.751Z,102021.48
2023-01-07T16:59:23.574Z,102025.00
2023-01-07T17:02:39.388Z,102023.65
2023-01-07T17:08:59.085Z,102032.77
2023-01-07T17:11:36.199Z,102031.11
2023-01-07T17:14:34.919Z,102032.55
2023-01-07T17:17:26.778Z,102039.48
2023-01-07T17:20:09.256Z,102039.38
2023-01-07T17:22:41.215Z,102041.35
2023-01-07T17:25:11.441Z,102041.88
2023-01-07T17:27:50.055Z,102047.80
2023-01-07T17:30:20.896Z,102051.96
2023-01-07T17:32:53.226Z,102055.61
2023-01-07T17:35:23.036Z,102055.14
2023-01-07T17:37:51.473Z,102057.58
2023-01-07T17:40:19.398Z,102057.83
2023-01-07T17:43:07.049Z,102059.42
2023-01-07T17:45:35.340Z,102063.83
2023-01-07T17:48:02.710Z,102065.36
2023-01-07T17:50:36.392Z,102066.80
2023-01-07T17:53:05.835Z,102068.79
2023-01-07T17:55:36.433Z,102067.86
2023-01-07T17:58:03.633Z,102068.52
2023-01-07T18:00:31.433Z,102066.58
2023-01-07T18:02:58.580Z,102068.51
2023-01-07T18:05:31.159Z,102069.90
2023-01-07T18:07:58.103Z,102067.14
2023-01-07T18:10:29.199Z,102069.42
2023-01-07T18:12:56.191Z,102069.60
2023-01-07T18:15:27.483Z,102073.96
2023-01-07T18:17:54.486Z,102075.64
2023-01-07T18:20:22.737Z,102078.20
2023-01-07T18:22:50.643Z,102078.95
2023-01-07T18:25:21.475Z,102079.55
2023-01-07T18:27:52.861Z,102080.81
2023-01-07T18:30:22.320Z,102075.79
2023-01-07T18:32:53.201Z,102080.80
2023-01-07T18:35:20.820Z,102080.96
2023-01-07T18:41:14.718Z,102082.95
2023-01-07T18:43:41.658Z,102084.88
2023-01-07T18:46:09.912Z,102083.57
2023-01-07T18:48:37.393Z,102081.38
2023-01-07T18:51:10.894Z,102083.53
2023-01-07T18:53:41.937Z,102084.40
2023-01-07T18:56:11.899Z,102084.48
2023-01-07T18:58:39.991Z,102086.81
2023-01-07T19:01:08.413Z,102091.57
2023-01-07T19:03:35.789Z,102093.66
2023-01-07T19:06:10.465Z,102095.39
2023-01-07T19:08:38.480Z,102096.71
2023-01-07T19:11:08.126Z,102098.19
2023-01-07T19:13:38.937Z,102096.52
2023-01-07T19:16:11.690Z,102102.48
2023-01-07T19:18:39.437Z,102106.39
2023-01-07T19:21:08.694Z,102106.92
2023-01-07T19:23:35.602Z,102101.64
2023-01-07T19:26:05.149Z,102101.23
2023-01-07T19:28:32.982Z,102099.30
2023-01-07T19:30:59.915Z,102101.64
2023-01-07T19:33:27.151Z,102100.59
2023-01-07T19:36:09.429Z,102102.10
2023-01-07T19:38:41.218Z,102102.39
2023-01-07T19:41:10.020Z,102103.56
2023-01-07T19:43:39.040Z,102102.48
2023-01-07T19:46:07.479Z,102099.84
2023-01-07T19:48:34.420Z,102098.97
2023-01-07T19:51:03.823Z,102096.29
2023-01-07T19:53:32.001Z,102097.58
2023-01-07T19:56:00.763Z,102099.21
2023-01-07T19:58:29.249Z,102101.05
2023-01-07T20:01:13.552Z,102100.44
2023-01-07T20:03:45.159Z,102101.67
2023-01-07T20:06:19.690Z,102105.84
2023-01-07T20:08:47.862Z,102103.45
2023-01-07T20:11:15.229Z,102102.56
2023-01-07T20:13:45.926Z,102100.45
2023-01-07T20:16:31.295Z,102101.17
2023-01-07T20:19:00.745Z,102104.95
2023-01-07T20:21:27.875Z,102106.50
2023-01-07T20:23:55.380Z,102106.85
2023-01-07T20:26:25.912Z,102106.91
2023-01-07T20:28:53.646Z,102105.48
2023-01-07T20:31:22.292Z,102106.86
2023-01-07T20:33:51.653Z,102105.72
2023-01-07T20:36:21.794Z,102104.48
2023-01-07T20:38:48.674Z,102104.52
2023-01-07T20:41:18.532Z,102107.75
2023-01-07T20:43:54.323Z,102105.13
2023-01-07T20:46:22.056Z,102111.92
2023-01-07T20:48:49.348Z,102112.30
2023-01-07T20:51:17.211Z,102114.15
2023-01-07T20:53:47.452Z,102113.75
2023-01-07T20:56:19.064Z,102117.73
2023-01-07T20:58:46.380Z,102116.47
2023-01-07T21:01:15.446Z,102116.02
2023-01-07T21:03:43.165Z,102118.05
2023-01-07T21:06:11.779Z,102116.67
2023-01-07T21:08:42.030Z,102115.71
2023-01-07T21:11:14.213Z,102116.56
2023-01-07T21:13:41.442Z,102111.73
2023-01-07T21:16:09.012Z,102114.42
2023-01-07T21:18:36.124Z,102114.85
2023-01-07T21:21:10.345Z,102114.15
2023-01-07T21:23:40.250Z,102115.83
2023-01-07T21:26:08.976Z,102109.33
2023-01-07T21:28:39.930Z,102111.50
2023-01-07T21:31:26.296Z,102110.38
2023-01-07T21:33:56.143Z,102115.48
2023-01-07T21:36:24.563Z,102118.63
2023-01-07T21:38:58.256Z,102116.46
2023-01-07T21:41:30.211Z,102113.80
2023-01-07T21:43:57.936Z,102112.34
2023-01-07T21:46:29.234Z,102114.11
2023-01-07T21:48:57.150Z,102114.40
2023-01-07T21:51:26.750Z,102113.70
2023-01-07T21:53:58.288Z,102112.76
2023-01-07T21:56:34.653Z,102112.38
2023-01-07T21:59:04.329Z,102113.65
2023-01-07T22:01:31.845Z,102113.09
2023-01-07T22:04:05.952Z,102112.71
2023-01-07T22:06:36.780Z,102105.63
2023-01-07T22:09:10.360Z,102104.02
2023-01-07T22:11:39.267Z,102101.83
2023-01-07T22:14:06.217Z,102098.23
2023-01-07T22:16:37.408Z,102095.76
2023-01-07T22:19:09.686Z,102097.52
2023-01-07T22:21:37.276Z,102098.36
2023-01-07T22:24:04.843Z,102097.58
2023-01-07T22:26:33.422Z,102098.17
2023-01-07T22:29:03.552Z,102098.14
2023-01-07T22:31:33.814Z,102102.49
2023-01-07T22:34:04.080Z,102102.46
2023-01-07T22:36:40.169Z,102095.93
2023-01-07T22:39:17.845Z,102096.56
2023-01-07T22:41:46.118Z,102099.10
2023-01-07T22:44:24.016Z,102096.09
2023-01-07T22:46:53.357Z,102097.81
2023-01-07T22:49:25.274Z,102092.95
2023-01-07T22:51:52.232Z,102092.34
2023-01-07T22:54:19.532Z,102089.88
2023-01-07T22:56:46.968Z,102087.23
2023-01-07T22:59:14.004Z,102085.84
2023-01-07T23:01:42.582Z,102085.46
2023-01-07T23:04:09.618Z,102088.81
2023-01-07T23:06:36.657Z,102087.59
2023-01-07T23:09:05.334Z,102088.29
2023-01-07T23:11:47.906Z,102087.11
2023-01-07T23:14:16.137Z,102086.26
2023-01-07T23:16:43.373Z,102083.73
2023-01-07T23:19:10.534Z,102080.16
2023-01-07T23:21:40.433Z,102075.37
2023-01-07T23:24:08.177Z,102071.55
2023-01-07T23:26:35.609Z,102067.58
2023-01-07T23:29:02.534Z,102065.88
2023-01-07T23:31:29.905Z,102062.74
2023-01-07T23:33:57.321Z,102063.02
2023-01-07T23:36:24.393Z,102061.35
2023-01-07T23:38:51.417Z,102054.26
2023-01-07T23:41:18.482Z,102055.29
2023-01-07T23:43:49.709Z,102053.19
2023-01-07T23:46:16.788Z,102051.05
2023-01-07T23:48:43.704Z,102047.98
2023-01-07T23:51:16.113Z,102046.27
2023-01-07T23:53:43.703Z,102042.34
2023-01-07T23:56:11.491Z,102041.35
2023-01-07T23:58:39.458Z,102039.51
